createdAt,value
2018-09-26T00:01:19.153Z,2.37
2018-09-26T00:03:51.209Z,2.00
2018-09-26T00:06:20.257Z,2.50
2018-09-26T00:08:48.445Z,2.00
2018-09-26T00:11:16.537Z,2.47
2018-09-26T00:13:44.821Z,2.27
2018-09-26T00:16:13.021Z,1.80
2018-09-26T00:18:41.249Z,3.30
2018-09-26T00:21:09.413Z,2.60
2018-09-26T00:23:38.130Z,2.13
2018-09-26T00:26:06.389Z,2.40
2018-09-26T00:28:34.561Z,2.87
2018-09-26T00:31:02.935Z,2.23
2018-09-26T00:33:31.352Z,2.00
2018-09-26T00:35:59.682Z,2.50
2018-09-26T00:38:27.973Z,2.80
2018-09-26T00:40:56.055Z,2.30
2018-09-26T00:43:24.214Z,2.13
2018-09-26T00:45:52.417Z,2.50
2018-09-26T00:48:20.504Z,2.50
2018-09-26T00:50:48.659Z,2.57
2018-09-26T00:53:16.846Z,2.50
2018-09-26T00:55:45.223Z,3.30
2018-09-26T00:58:13.376Z,2.20
2018-09-26T01:00:41.457Z,2.20
2018-09-26T01:03:09.557Z,2.93
2018-09-26T01:05:37.966Z,2.17
2018-09-26T01:08:06.085Z,3.10
2018-09-26T01:10:34.153Z,2.80
2018-09-26T01:13:02.228Z,2.70
2018-09-26T01:15:30.397Z,2.53
2018-09-26T01:17:58.540Z,3.03
2018-09-26T01:20:26.669Z,2.50
2018-09-26T01:22:54.822Z,3.00
2018-09-26T01:25:23.112Z,2.40
2018-09-26T01:27:51.368Z,2.40
2018-09-26T01:30:19.573Z,2.50
2018-09-26T01:32:47.761Z,2.30
2018-09-26T01:35:15.945Z,2.33
2018-09-26T01:37:44.821Z,2.30
2018-09-26T01:40:12.913Z,2.63
2018-09-26T01:42:41.046Z,2.80
2018-09-26T01:45:09.147Z,2.63
2018-09-26T01:47:37.346Z,2.37
2018-09-26T01:50:05.985Z,2.60
2018-09-26T01:52:34.097Z,2.80
2018-09-26T01:55:02.231Z,2.17
2018-09-26T01:57:30.595Z,2.67
2018-09-26T01:59:59.521Z,2.50
2018-09-26T02:02:27.625Z,2.70
2018-09-26T02:04:55.966Z,2.65
2018-09-26T02:07:24.048Z,2.43
2018-09-26T02:09:52.343Z,2.20
2018-09-26T02:12:21.081Z,2.72
2018-09-26T02:14:49.278Z,2.93
2018-09-26T02:17:17.417Z,2.80
2018-09-26T02:19:45.749Z,2.40
2018-09-26T02:22:13.916Z,2.83
2018-09-26T02:24:42.181Z,3.10
2018-09-26T02:27:10.517Z,2.60
2018-09-26T02:29:38.994Z,2.75
2018-09-26T02:32:07.634Z,3.08
2018-09-26T02:34:35.973Z,2.35
2018-09-26T02:37:06.854Z,2.77
2018-09-26T02:39:35.481Z,2.10
2018-09-26T02:42:03.606Z,2.40
2018-09-26T02:44:31.943Z,2.90
2018-09-26T02:47:00.276Z,2.45
2018-09-26T02:49:28.643Z,2.92
2018-09-26T02:51:57.736Z,2.27
2018-09-26T02:54:25.822Z,2.10
2018-09-26T02:56:54.226Z,2.45
2018-09-26T02:59:22.564Z,2.70
2018-09-26T03:01:50.763Z,3.27
2018-09-26T03:04:19.165Z,2.17
2018-09-26T03:06:47.620Z,2.77
2018-09-26T03:09:16.013Z,2.52
2018-09-26T03:11:44.509Z,2.55
2018-09-26T03:14:12.787Z,2.60
2018-09-26T03:16:41.293Z,2.58
2018-09-26T03:19:09.504Z,2.50
2018-09-26T03:21:38.118Z,2.60
2018-09-26T03:24:06.698Z,2.60
2018-09-26T03:26:34.926Z,2.30
2018-09-26T03:29:03.416Z,2.20
2018-09-26T03:31:31.868Z,2.83
2018-09-26T03:34:00.524Z,1.90
2018-09-26T03:36:29.246Z,2.30
2018-09-26T03:38:57.637Z,2.47
2018-09-26T03:41:26.190Z,1.90
2018-09-26T03:43:54.656Z,1.95
2018-09-26T03:46:23.230Z,2.37
2018-09-26T03:48:51.635Z,2.20
2018-09-26T03:51:20.081Z,2.60
2018-09-26T03:53:48.473Z,2.47
2018-09-26T03:56:17.157Z,2.02
2018-09-26T03:58:45.513Z,2.45
2018-09-26T04:01:13.870Z,2.02
2018-09-26T04:03:42.230Z,2.60
2018-09-26T04:06:10.421Z,2.40
2018-09-26T04:08:38.775Z,2.30
2018-09-26T04:11:07.133Z,2.40
2018-09-26T04:13:35.519Z,2.42
2018-09-26T04:16:04.046Z,2.02
2018-09-26T04:18:33.281Z,2.50
2018-09-26T04:21:01.714Z,2.30
2018-09-26T04:23:30.064Z,2.77
2018-09-26T04:25:58.471Z,2.30
2018-09-26T04:28:26.837Z,2.37
2018-09-26T04:30:55.300Z,2.67
2018-09-26T04:33:23.950Z,2.83
2018-09-26T04:35:52.483Z,2.72
2018-09-26T04:38:21.244Z,2.67
2018-09-26T04:40:49.579Z,2.27
2018-09-26T04:43:18.006Z,2.58
2018-09-26T04:45:46.557Z,2.08
2018-09-26T04:48:14.979Z,3.30
2018-09-26T04:50:43.480Z,2.50
2018-09-26T04:53:11.975Z,2.25
2018-09-26T04:55:40.545Z,2.65
2018-09-26T04:58:08.945Z,2.65
2018-09-26T05:00:37.504Z,3.70
2018-09-26T05:03:06.210Z,2.45
2018-09-26T05:05:34.801Z,2.90
2018-09-26T05:08:03.145Z,3.00
2018-09-26T05:10:31.529Z,2.22
2018-09-26T05:13:01.570Z,2.85
2018-09-26T05:15:30.034Z,3.20
2018-09-26T05:17:58.437Z,3.00
2018-09-26T05:20:26.761Z,2.87
2018-09-26T05:22:55.287Z,2.98
2018-09-26T05:25:23.792Z,3.25
2018-09-26T05:27:52.137Z,2.85
2018-09-26T05:30:20.476Z,2.83
2018-09-26T05:32:49.033Z,2.67
2018-09-26T05:35:17.396Z,2.80
2018-09-26T05:37:45.768Z,2.90
2018-09-26T05:40:14.444Z,3.12
2018-09-26T05:42:42.917Z,3.00
2018-09-26T05:45:11.260Z,3.52
2018-09-26T05:47:39.783Z,3.00
2018-09-26T05:50:08.357Z,3.22
2018-09-26T05:52:37.014Z,2.83
2018-09-26T05:55:05.749Z,2.45
2018-09-26T05:57:34.150Z,3.50
2018-09-26T06:00:02.525Z,3.00
2018-09-26T06:02:30.858Z,2.90
2018-09-26T06:04:59.200Z,3.30
2018-09-26T06:07:27.379Z,3.23
2018-09-26T06:09:55.565Z,3.23
2018-09-26T06:12:23.632Z,3.00
2018-09-26T06:14:51.821Z,4.13
2018-09-26T06:17:20.113Z,4.40
2018-09-26T06:19:48.452Z,3.15
2018-09-26T06:22:16.553Z,2.80
2018-09-26T06:24:44.713Z,3.80
2018-09-26T06:27:12.925Z,3.23
2018-09-26T06:29:40.972Z,3.20
2018-09-26T06:32:09.328Z,3.30
2018-09-26T06:34:37.476Z,3.40
2018-09-26T06:37:05.674Z,4.40
2018-09-26T06:39:33.796Z,4.00
2018-09-26T06:42:02.148Z,4.33
2018-09-26T06:44:30.216Z,3.77
2018-09-26T06:46:58.428Z,4.13
2018-09-26T06:49:26.480Z,4.40
2018-09-26T06:51:55.392Z,3.87
2018-09-26T06:54:23.804Z,4.00
2018-09-26T06:56:51.917Z,3.93
2018-09-26T06:59:20.121Z,3.40
2018-09-26T07:01:48.273Z,3.50
2018-09-26T07:04:16.380Z,3.60
2018-09-26T07:06:44.474Z,4.10
2018-09-26T07:09:12.576Z,4.07
2018-09-26T07:11:40.652Z,4.00
2018-09-26T07:14:08.728Z,5.83
2018-09-26T07:16:36.912Z,4.47
2018-09-26T07:19:05.372Z,4.47
2018-09-26T07:21:33.456Z,3.97
2018-09-26T07:24:01.648Z,3.27
2018-09-26T07:26:30.033Z,3.30
2018-09-26T07:28:58.172Z,3.73
2018-09-26T07:31:26.410Z,3.70
2018-09-26T07:33:54.755Z,3.57
2018-09-26T07:36:22.901Z,4.87
2018-09-26T07:38:50.995Z,4.03
2018-09-26T07:41:19.180Z,3.33
2018-09-26T07:43:47.405Z,3.50
2018-09-26T07:46:15.519Z,3.10
2018-09-26T07:48:43.767Z,2.57
2018-09-26T07:51:11.865Z,3.40
2018-09-26T07:53:40.117Z,3.20
2018-09-26T07:56:08.211Z,2.60
2018-09-26T07:58:37.270Z,2.73
2018-09-26T08:01:05.436Z,3.40
2018-09-26T08:03:33.581Z,2.87
2018-09-26T08:06:01.861Z,3.30
2018-09-26T08:08:30.149Z,2.83
2018-09-26T08:10:58.284Z,2.77
2018-09-26T08:13:26.546Z,3.00
2018-09-26T08:15:54.857Z,2.80
2018-09-26T08:18:23.158Z,3.40
2018-09-26T08:20:51.391Z,3.10
2018-09-26T08:23:19.736Z,3.13
2018-09-26T08:25:47.920Z,3.40
2018-09-26T08:28:16.053Z,3.37
2018-09-26T08:30:44.178Z,2.97
2018-09-26T08:33:12.273Z,3.10
2018-09-26T08:35:40.347Z,2.80
2018-09-26T08:38:08.518Z,2.40
2018-09-26T08:40:36.633Z,2.10
2018-09-26T08:43:04.765Z,2.60
2018-09-26T08:45:32.872Z,2.60
2018-09-26T08:48:01.003Z,2.40
2018-09-26T08:50:29.282Z,1.90
2018-09-26T08:52:57.367Z,1.77
2018-09-26T08:55:26.112Z,1.67
2018-09-26T08:57:54.429Z,2.13
2018-09-26T09:00:28.014Z,2.10
2018-09-26T09:02:56.204Z,1.80
2018-09-26T09:05:24.267Z,2.47
2018-09-26T09:07:52.606Z,2.00
2018-09-26T09:10:20.737Z,2.03
2018-09-26T09:12:49.001Z,2.00
2018-09-26T09:15:17.145Z,2.20
2018-09-26T09:17:45.296Z,1.97
2018-09-26T09:20:13.583Z,1.77
2018-09-26T09:22:42.275Z,2.20
2018-09-26T09:25:10.324Z,2.10
2018-09-26T09:27:38.489Z,1.90
2018-09-26T09:30:06.848Z,2.50
2018-09-26T09:32:35.160Z,2.03
2018-09-26T09:35:03.708Z,2.23
2018-09-26T09:37:32.060Z,2.40
2018-09-26T09:40:00.233Z,2.20
2018-09-26T09:42:28.736Z,2.70
2018-09-26T09:44:56.843Z,2.50
2018-09-26T09:47:24.931Z,2.20
2018-09-26T09:49:53.494Z,2.57
2018-09-26T09:52:22.090Z,2.03
2018-09-26T09:54:50.304Z,2.03
2018-09-26T09:57:19.497Z,2.00
2018-09-26T09:59:56.862Z,2.10
2018-09-26T10:02:25.009Z,2.50
2018-09-26T10:04:53.279Z,2.27
2018-09-26T10:07:21.349Z,1.90
2018-09-26T10:09:49.446Z,2.27
2018-09-26T10:12:17.497Z,2.37
2018-09-26T10:14:45.623Z,2.20
2018-09-26T10:17:13.645Z,2.33
2018-09-26T10:19:41.721Z,2.07
2018-09-26T10:22:09.911Z,2.23
2018-09-26T10:24:38.068Z,1.73
2018-09-26T10:27:07.364Z,2.30
2018-09-26T10:29:35.398Z,1.50
2018-09-26T10:32:03.694Z,1.60
2018-09-26T10:34:31.920Z,1.87
2018-09-26T10:37:00.014Z,1.70
2018-09-26T10:39:28.138Z,1.47
2018-09-26T10:41:56.234Z,2.07
2018-09-26T10:44:24.325Z,2.00
2018-09-26T10:46:52.740Z,1.90
2018-09-26T10:49:20.927Z,2.17
2018-09-26T10:51:49.342Z,1.90
2018-09-26T10:54:17.421Z,2.00
2018-09-26T10:56:45.618Z,1.80
2018-09-26T10:59:13.792Z,1.90
2018-09-26T11:01:41.915Z,2.33
2018-09-26T11:04:10.020Z,2.20
2018-09-26T11:06:38.289Z,2.10
2018-09-26T11:09:07.466Z,2.10
2018-09-26T11:11:35.657Z,1.83
2018-09-26T11:14:03.740Z,1.57
2018-09-26T11:16:31.996Z,1.90
2018-09-26T11:19:00.217Z,1.60
2018-09-26T11:21:28.356Z,1.70
2018-09-26T11:23:56.434Z,1.80
2018-09-26T11:26:24.664Z,2.00
2018-09-26T11:28:54.301Z,1.40
2018-09-26T11:31:23.233Z,1.63
2018-09-26T11:33:51.401Z,1.80
2018-09-26T11:36:19.589Z,1.53
2018-09-26T11:38:47.720Z,1.93
2018-09-26T11:41:16.094Z,1.63
2018-09-26T11:43:44.703Z,1.63
2018-09-26T11:46:12.805Z,1.47
2018-09-26T11:48:41.149Z,1.73
2018-09-26T11:51:09.210Z,1.40
2018-09-26T11:53:37.620Z,1.77
2018-09-26T11:56:05.838Z,1.90
2018-09-26T11:58:34.222Z,1.50
2018-09-26T12:01:02.540Z,1.47
2018-09-26T12:03:30.657Z,1.60
2018-09-26T12:05:58.805Z,1.30
2018-09-26T12:08:27.012Z,1.60
2018-09-26T12:10:55.364Z,1.50
2018-09-26T12:13:23.732Z,1.40
2018-09-26T12:15:52.008Z,1.50
2018-09-26T12:18:20.223Z,1.40
2018-09-26T12:20:48.424Z,1.50
2018-09-26T12:23:16.525Z,1.20
2018-09-26T12:25:44.604Z,1.20
2018-09-26T12:28:12.723Z,1.00
2018-09-26T12:30:41.235Z,1.30
2018-09-26T12:33:09.357Z,1.40
2018-09-26T12:35:37.448Z,1.30
2018-09-26T12:38:05.381Z,1.73
2018-09-26T12:40:33.440Z,1.30
2018-09-26T12:43:01.522Z,1.43
2018-09-26T12:45:29.926Z,0.97
2018-09-26T12:47:58.038Z,1.20
2018-09-26T12:50:26.289Z,1.40
2018-09-26T12:52:54.398Z,1.47
2018-09-26T12:55:22.500Z,1.83
2018-09-26T12:57:50.683Z,1.60
2018-09-26T13:00:18.799Z,1.60
2018-09-26T13:02:47.050Z,1.40
2018-09-26T13:05:15.280Z,1.50
2018-09-26T13:07:43.416Z,1.33
2018-09-26T13:10:11.596Z,1.67
2018-09-26T13:12:39.817Z,1.90
2018-09-26T13:15:07.880Z,1.33
2018-09-26T13:17:35.990Z,1.13
2018-09-26T13:20:05.142Z,1.67
2018-09-26T13:22:33.497Z,1.23
2018-09-26T13:25:01.618Z,1.37
2018-09-26T13:27:29.864Z,1.43
2018-09-26T13:29:57.974Z,1.33
2018-09-26T13:32:26.189Z,1.33
2018-09-26T13:34:54.437Z,1.43
2018-09-26T13:37:22.535Z,1.20
2018-09-26T13:39:50.877Z,1.97
2018-09-26T13:42:18.990Z,1.47
2018-09-26T13:44:47.292Z,1.30
2018-09-26T13:47:15.424Z,1.60
2018-09-26T13:49:43.510Z,1.60
2018-09-26T13:52:11.606Z,1.23
2018-09-26T13:54:40.464Z,1.60
2018-09-26T13:57:08.622Z,1.60
2018-09-26T13:59:37.018Z,1.40
2018-09-26T14:02:05.208Z,1.57
2018-09-26T14:04:33.496Z,1.90
2018-09-26T14:07:02.784Z,1.60
2018-09-26T14:09:30.975Z,1.33
2018-09-26T14:11:59.101Z,1.30
2018-09-26T14:14:27.272Z,1.73
2018-09-26T14:16:55.454Z,1.60
2018-09-26T14:19:23.717Z,1.60
2018-09-26T14:21:52.048Z,1.50
2018-09-26T14:24:20.153Z,1.70
2018-09-26T14:26:48.253Z,1.77
2018-09-26T14:29:16.983Z,2.87
2018-09-26T14:31:45.664Z,1.83
2018-09-26T14:34:13.760Z,1.87
2018-09-26T14:36:41.846Z,1.70
2018-09-26T14:39:10.093Z,1.83
2018-09-26T14:41:39.333Z,2.17
2018-09-26T14:44:07.589Z,2.07
2018-09-26T14:46:35.942Z,1.57
2018-09-26T14:49:03.997Z,2.00
2018-09-26T14:51:32.093Z,2.70
2018-09-26T14:54:00.149Z,1.70
2018-09-26T14:56:28.263Z,1.70
2018-09-26T14:58:56.478Z,1.50
2018-09-26T15:01:24.538Z,2.07
2018-09-26T15:03:52.606Z,2.03
2018-09-26T15:06:20.700Z,2.00
2018-09-26T15:08:49.012Z,1.70
2018-09-26T15:11:17.150Z,1.57
2018-09-26T15:13:45.313Z,1.67
2018-09-26T15:16:13.480Z,1.77
2018-09-26T15:18:41.777Z,1.87
2018-09-26T15:21:09.878Z,2.10
2018-09-26T15:23:38.419Z,1.60
2018-09-26T15:26:06.661Z,2.60
2018-09-26T15:28:34.930Z,2.00
2018-09-26T15:31:03.144Z,1.80
2018-09-26T15:33:31.238Z,1.70
2018-09-26T15:35:59.311Z,1.80
2018-09-26T15:38:27.487Z,2.00
2018-09-26T15:40:55.622Z,2.57
2018-09-26T15:43:23.680Z,2.17
2018-09-26T15:45:51.747Z,1.93
2018-09-26T15:48:19.847Z,2.67
2018-09-26T15:50:48.144Z,2.60
2018-09-26T15:53:16.248Z,2.47
2018-09-26T15:55:44.381Z,2.20
2018-09-26T15:58:12.515Z,2.17
2018-09-26T16:00:41.268Z,2.90
2018-09-26T16:03:09.362Z,2.90
2018-09-26T16:05:37.520Z,3.50
2018-09-26T16:08:05.609Z,3.53
2018-09-26T16:10:33.979Z,3.47
2018-09-26T16:13:02.384Z,3.63
2018-09-26T16:15:30.458Z,3.27
2018-09-26T16:17:58.657Z,3.47
2018-09-26T16:20:26.817Z,3.50
2018-09-26T16:22:55.081Z,3.80
2018-09-26T16:25:23.297Z,4.00
2018-09-26T16:27:51.521Z,3.80
2018-09-26T16:30:19.650Z,3.73
2018-09-26T16:32:47.913Z,3.97
2018-09-26T16:35:16.059Z,4.20
2018-09-26T16:37:44.312Z,3.80
2018-09-26T16:40:12.406Z,3.70
2018-09-26T16:42:40.790Z,3.30
2018-09-26T16:45:09.256Z,3.27
2018-09-26T16:47:37.549Z,3.70
2018-09-26T16:50:05.668Z,3.50
2018-09-26T16:52:33.919Z,4.70
2018-09-26T16:55:02.109Z,3.60
2018-09-26T16:57:30.473Z,3.10
2018-09-26T16:59:58.558Z,2.60
2018-09-26T17:02:26.752Z,3.30
2018-09-26T17:04:54.906Z,3.27
2018-09-26T17:07:23.071Z,3.50
2018-09-26T17:09:51.174Z,4.60
2018-09-26T17:12:19.387Z,3.57
2018-09-26T17:14:47.718Z,3.97
2018-09-26T17:17:15.830Z,3.57
2018-09-26T17:19:43.968Z,3.60
2018-09-26T17:22:12.338Z,4.10
2018-09-26T17:24:40.601Z,4.10
2018-09-26T17:27:08.433Z,4.60
2018-09-26T17:29:36.537Z,3.63
2018-09-26T17:32:04.601Z,4.07
2018-09-26T17:34:32.712Z,3.40
2018-09-26T17:37:01.067Z,3.50
2018-09-26T17:39:29.324Z,2.90
2018-09-26T17:41:57.439Z,3.50
2018-09-26T17:44:25.505Z,2.93
2018-09-26T17:46:53.648Z,3.60
2018-09-26T17:49:21.711Z,4.10
2018-09-26T17:51:50.032Z,3.87
2018-09-26T17:54:18.638Z,3.47
2018-09-26T17:56:46.938Z,3.70
2018-09-26T17:59:15.063Z,3.60
2018-09-26T18:01:43.160Z,3.80
2018-09-26T18:04:11.768Z,3.40
2018-09-26T18:06:40.059Z,3.57
2018-09-26T18:09:09.142Z,4.10
2018-09-26T18:11:37.364Z,3.63
2018-09-26T18:14:06.143Z,4.33
2018-09-26T18:16:34.223Z,3.53
2018-09-26T18:19:02.490Z,2.87
2018-09-26T18:21:31.396Z,3.87
2018-09-26T18:23:59.569Z,3.47
2018-09-26T18:26:27.683Z,3.50
2018-09-26T18:28:56.105Z,3.00
2018-09-26T18:31:24.302Z,4.73
2018-09-26T18:33:52.379Z,3.53
2018-09-26T18:36:20.579Z,3.70
2018-09-26T18:38:48.820Z,3.70
2018-09-26T18:41:17.168Z,3.70
2018-09-26T18:43:45.272Z,3.43
2018-09-26T18:46:13.473Z,4.00
2018-09-26T18:48:41.600Z,4.20
2018-09-26T18:51:10.229Z,4.00
2018-09-26T18:53:38.684Z,4.73
2018-09-26T18:56:06.805Z,3.60
2018-09-26T18:58:34.988Z,4.00
2018-09-26T19:01:03.282Z,5.30
2018-09-26T19:03:31.586Z,4.13
2018-09-26T19:05:59.728Z,4.37
2018-09-26T19:08:27.813Z,4.43
2018-09-26T19:10:55.961Z,3.60
2018-09-26T19:13:24.141Z,4.63
2018-09-26T19:15:52.252Z,3.93
2018-09-26T19:18:20.437Z,4.43
2018-09-26T19:20:48.522Z,4.87
2018-09-26T19:23:16.610Z,5.70
2018-09-26T19:25:44.678Z,4.33
2018-09-26T19:28:12.882Z,4.70
2018-09-26T19:30:40.957Z,4.70
2018-09-26T19:33:09.210Z,4.33
2018-09-26T19:35:37.394Z,5.20
2018-09-26T19:38:06.142Z,4.20
2018-09-26T19:40:34.262Z,4.97
2018-09-26T19:43:02.775Z,4.80
2018-09-26T19:45:31.057Z,4.50
2018-09-26T19:47:59.269Z,4.57
2018-09-26T19:50:27.462Z,4.40
2018-09-26T19:52:55.612Z,5.40
2018-09-26T19:55:24.063Z,4.70
2018-09-26T19:57:52.186Z,4.20
2018-09-26T20:00:20.768Z,3.87
2018-09-26T20:02:48.854Z,4.30
2018-09-26T20:05:17.038Z,4.57
2018-09-26T20:07:45.158Z,4.43
2018-09-26T20:10:13.489Z,4.30
2018-09-26T20:12:41.768Z,4.10
2018-09-26T20:15:10.825Z,4.07
2018-09-26T20:17:38.986Z,4.10
2018-09-26T20:20:07.223Z,3.93
2018-09-26T20:22:35.657Z,4.93
2018-09-26T20:25:03.828Z,4.10
2018-09-26T20:27:32.144Z,4.43
2018-09-26T20:30:00.529Z,4.50
2018-09-26T20:32:28.657Z,5.00
2018-09-26T20:34:56.892Z,4.50
2018-09-26T20:37:25.128Z,4.83
2018-09-26T20:39:53.504Z,4.67
2018-09-26T20:42:21.662Z,4.87
2018-09-26T20:44:49.860Z,4.60
2018-09-26T20:47:18.672Z,4.97
2018-09-26T20:49:46.963Z,4.90
2018-09-26T20:52:15.234Z,4.77
2018-09-26T20:54:43.957Z,4.27
2018-09-26T20:57:12.045Z,4.77
2018-09-26T20:59:40.132Z,5.17
2018-09-26T21:02:08.317Z,4.90
2018-09-26T21:04:36.371Z,4.93
2018-09-26T21:07:04.506Z,7.70
2018-09-26T21:09:32.656Z,4.93
2018-09-26T21:12:00.929Z,5.40
2018-09-26T21:14:28.992Z,5.23
2018-09-26T21:17:05.305Z,5.93
2018-09-26T21:19:33.479Z,4.57
2018-09-26T21:22:02.305Z,4.63
2018-09-26T21:24:30.378Z,4.47
2018-09-26T21:26:58.507Z,4.70
2018-09-26T21:29:27.642Z,4.47
2018-09-26T21:31:56.020Z,4.47
2018-09-26T21:34:24.206Z,4.03
2018-09-26T21:36:52.365Z,4.23
2018-09-26T21:39:20.454Z,4.30
2018-09-26T21:41:48.812Z,3.90
2018-09-26T21:44:16.893Z,4.23
2018-09-26T21:46:44.990Z,4.70
2018-09-26T21:49:13.052Z,4.43
2018-09-26T21:51:41.100Z,3.87
2018-09-26T21:54:09.159Z,3.40
2018-09-26T21:56:37.820Z,4.00
2018-09-26T21:59:06.121Z,3.80
2018-09-26T22:01:34.260Z,3.50
2018-09-26T22:04:02.433Z,3.43
2018-09-26T22:06:30.678Z,3.47
2018-09-26T22:08:58.821Z,3.53
2018-09-26T22:11:27.039Z,3.50
2018-09-26T22:13:55.313Z,3.97
2018-09-26T22:16:23.608Z,4.30
2018-09-26T22:18:51.761Z,3.83
2018-09-26T22:21:20.237Z,3.27
2018-09-26T22:23:48.428Z,3.20
2018-09-26T22:26:16.710Z,3.40
2018-09-26T22:28:44.895Z,3.30
2018-09-26T22:31:13.245Z,3.93
2018-09-26T22:33:41.542Z,3.07
2018-09-26T22:36:09.668Z,3.37
2018-09-26T22:38:37.955Z,3.03
2018-09-26T22:41:06.268Z,3.17
2018-09-26T22:43:34.524Z,3.07
2018-09-26T22:46:02.636Z,3.30
2018-09-26T22:48:30.780Z,3.13
2018-09-26T22:50:58.989Z,3.30
2018-09-26T22:53:27.137Z,2.90
2018-09-26T22:55:55.327Z,3.10
2018-09-26T22:58:24.012Z,3.60
2018-09-26T23:00:52.190Z,3.03
2018-09-26T23:03:20.387Z,3.00
2018-09-26T23:05:48.568Z,3.10
2018-09-26T23:08:16.704Z,3.13
2018-09-26T23:10:44.881Z,3.10
2018-09-26T23:13:13.070Z,3.00
2018-09-26T23:15:41.236Z,3.20
2018-09-26T23:18:09.428Z,3.37
2018-09-26T23:20:37.693Z,3.10
2018-09-26T23:23:06.366Z,3.17
2018-09-26T23:25:34.461Z,3.33
2018-09-26T23:28:02.564Z,3.17
2018-09-26T23:30:30.925Z,3.10
2018-09-26T23:32:59.165Z,3.17
2018-09-26T23:35:27.571Z,3.20
2018-09-26T23:37:55.936Z,3.40
2018-09-26T23:40:24.108Z,3.03
2018-09-26T23:42:52.314Z,3.00
2018-09-26T23:45:20.573Z,3.67
2018-09-26T23:47:48.734Z,3.30
2018-09-26T23:50:16.956Z,3.03
2018-09-26T23:52:45.095Z,2.77
2018-09-26T23:55:13.465Z,3.30
2018-09-26T23:57:41.642Z,2.87
